sensor_id;sensor_type;location;lat;lon;timestamp;pressure;altitude;pressure_sealevel;temperature;humidity
13765;BME280;6953;48.810;9.204;2024-03-25T00:01:22;98015.50;;;7.87;97.06
13765;BME280;6953;48.810;9.204;2024-03-25T00:03:48;98031.09;;;8.04;96.77
13765;BME280;6953;48.810;9.204;2024-03-25T00:06:13;97746.63;;;6.28;96.38
13765;BME280;6953;48.810;9.204;2024-03-25T00:08:39;97787.53;;;6.60;96.74
13765;BME280;6953;48.810;9.204;2024-03-25T00:11:04;98025.22;;;8.01;96.49
13765;BME280;6953;48.810;9.204;2024-03-25T00:13:29;98029.56;;;8.00;96.31
13765;BME280;6953;48.810;9.204;2024-03-25T00:15:54;98030.59;;;7.98;96.36
13765;BME280;6953;48.810;9.204;2024-03-25T00:18:20;98026.19;;;7.98;96.51
13765;BME280;6953;48.810;9.204;2024-03-25T00:20:45;97951.25;;;7.52;96.02
13765;BME280;6953;48.810;9.204;2024-03-25T00:23:10;98029.72;;;7.97;96.43
13765;BME280;6953;48.810;9.204;2024-03-25T00:25:37;98029.06;;;7.94;96.85
13765;BME280;6953;48.810;9.204;2024-03-25T00:28:02;97768.53;;;6.41;96.00
13765;BME280;6953;48.810;9.204;2024-03-25T00:30:27;97736.69;;;6.19;96.07
13765;BME280;6953;48.810;9.204;2024-03-25T00:32:52;98044.09;;;7.73;96.76
13765;BME280;6953;48.810;9.204;2024-03-25T00:35:18;97997.66;;;7.46;96.88
13765;BME280;6953;48.810;9.204;2024-03-25T00:37:43;98020.81;;;7.69;96.71
13765;BME280;6953;48.810;9.204;2024-03-25T00:40:10;98008.31;;;7.58;96.96
13765;BME280;6953;48.810;9.204;2024-03-25T00:42:36;98020.13;;;7.65;97.25
13765;BME280;6953;48.810;9.204;2024-03-25T00:45:02;98023.59;;;7.66;96.79
13765;BME280;6953;48.810;9.204;2024-03-25T00:47:27;97924.31;;;7.03;96.39
13765;BME280;6953;48.810;9.204;2024-03-25T00:49:52;98029.03;;;7.61;96.52
13765;BME280;6953;48.810;9.204;2024-03-25T00:52:18;98057.00;;;7.59;96.99
13765;BME280;6953;48.810;9.204;2024-03-25T00:54:43;98025.00;;;7.56;96.79
13765;BME280;6953;48.810;9.204;2024-03-25T00:57:08;97901.09;;;6.81;97.07
13765;BME280;6953;48.810;9.204;2024-03-25T00:59:34;98053.19;;;7.49;97.13
13765;BME280;6953;48.810;9.204;2024-03-25T01:01:59;97995.56;;;7.20;97.48
13765;BME280;6953;48.810;9.204;2024-03-25T01:04:24;97779.16;;;5.86;97.60
13765;BME280;6953;48.810;9.204;2024-03-25T01:06:50;97796.72;;;6.00;98.20
13765;BME280;6953;48.810;9.204;2024-03-25T01:09:15;97929.78;;;6.81;97.67
13765;BME280;6953;48.810;9.204;2024-03-25T01:11:41;98014.78;;;7.34;97.75
13765;BME280;6953;48.810;9.204;2024-03-25T01:14:06;97944.50;;;6.99;98.23
13765;BME280;6953;48.810;9.204;2024-03-25T01:16:32;97977.16;;;7.23;97.67
13765;BME280;6953;48.810;9.204;2024-03-25T01:18:57;97849.28;;;6.58;96.79
13765;BME280;6953;48.810;9.204;2024-03-25T01:21:24;97896.31;;;6.89;96.69
13765;BME280;6953;48.810;9.204;2024-03-25T01:23:49;98004.13;;;7.56;96.59
13765;BME280;6953;48.810;9.204;2024-03-25T01:26:14;98004.94;;;7.56;96.52
13765;BME280;6953;48.810;9.204;2024-03-25T01:28:40;97741.72;;;6.06;96.00
13765;BME280;6953;48.810;9.204;2024-03-25T01:31:05;97731.78;;;5.97;96.59
13765;BME280;6953;48.810;9.204;2024-03-25T01:33:30;98001.66;;;7.53;96.92
13765;BME280;6953;48.810;9.204;2024-03-25T01:35:56;98019.16;;;7.51;96.36
13765;BME280;6953;48.810;9.204;2024-03-25T01:38:21;97985.38;;;7.48;96.92
13765;BME280;6953;48.810;9.204;2024-03-25T01:40:47;97981.84;;;7.49;96.89
13765;BME280;6953;48.810;9.204;2024-03-25T01:43:13;98017.31;;;7.53;96.82
13765;BME280;6953;48.810;9.204;2024-03-25T01:45:38;97729.09;;;5.98;96.61
13765;BME280;6953;48.810;9.204;2024-03-25T01:48:07;97998.97;;;7.54;96.52
13765;BME280;6953;48.810;9.204;2024-03-25T01:50:35;98028.69;;;7.52;96.71
13765;BME280;6953;48.810;9.204;2024-03-25T01:53:02;98007.03;;;7.50;97.03
13765;BME280;6953;48.810;9.204;2024-03-25T01:55:29;97841.25;;;6.46;96.24
13765;BME280;6953;48.810;9.204;2024-03-25T01:57:55;98026.38;;;7.46;96.89
13765;BME280;6953;48.810;9.204;2024-03-25T02:00:21;97984.59;;;7.30;96.89
13765;BME280;6953;48.810;9.204;2024-03-25T02:02:47;98010.81;;;7.44;97.45
13765;BME280;6953;48.810;9.204;2024-03-25T02:05:15;98040.34;;;7.45;96.79
13765;BME280;6953;48.810;9.204;2024-03-25T02:07:41;97949.47;;;7.04;96.87
13765;BME280;6953;48.810;9.204;2024-03-25T02:10:07;97870.00;;;6.61;97.23
13765;BME280;6953;48.810;9.204;2024-03-25T02:12:35;97880.78;;;6.71;97.09
13765;BME280;6953;48.810;9.204;2024-03-25T02:15:01;97823.44;;;6.37;97.01
13765;BME280;6953;48.810;9.204;2024-03-25T02:17:26;98016.84;;;7.45;96.90
13765;BME280;6953;48.810;9.204;2024-03-25T02:19:52;97901.28;;;6.94;96.59
13765;BME280;6953;48.810;9.204;2024-03-25T02:22:18;97994.00;;;7.33;96.72
13765;BME280;6953;48.810;9.204;2024-03-25T02:24:45;97929.66;;;7.17;96.34
13765;BME280;6953;48.810;9.204;2024-03-25T02:27:10;98003.88;;;7.60;96.34
13765;BME280;6953;48.810;9.204;2024-03-25T02:29:40;98004.63;;;7.62;96.37
13765;BME280;6953;48.810;9.204;2024-03-25T02:32:06;97985.91;;;7.54;96.02
13765;BME280;6953;48.810;9.204;2024-03-25T02:34:31;98002.69;;;7.66;95.60
13765;BME280;6953;48.810;9.204;2024-03-25T02:36:57;97979.63;;;7.58;95.31
13765;BME280;6953;48.810;9.204;2024-03-25T02:39:22;97999.94;;;7.69;95.83
13765;BME280;6953;48.810;9.204;2024-03-25T02:41:49;97932.25;;;7.33;95.34
13765;BME280;6953;48.810;9.204;2024-03-25T02:44:15;97826.72;;;6.74;95.68
13765;BME280;6953;48.810;9.204;2024-03-25T02:46:41;97977.72;;;7.62;95.76
13765;BME280;6953;48.810;9.204;2024-03-25T02:49:06;97735.06;;;6.17;94.87
13765;BME280;6953;48.810;9.204;2024-03-25T02:51:31;98002.38;;;7.72;94.87
13765;BME280;6953;48.810;9.204;2024-03-25T02:53:56;97745.19;;;6.23;95.07
13765;BME280;6953;48.810;9.204;2024-03-25T02:56:22;97987.66;;;7.71;95.17
13765;BME280;6953;48.810;9.204;2024-03-25T02:58:47;97991.19;;;7.70;94.80
13765;BME280;6953;48.810;9.204;2024-03-25T03:01:12;97998.25;;;7.68;94.69
13765;BME280;6953;48.810;9.204;2024-03-25T03:03:38;97750.47;;;6.21;94.97
13765;BME280;6953;48.810;9.204;2024-03-25T03:06:03;97997.47;;;7.66;95.62
13765;BME280;6953;48.810;9.204;2024-03-25T03:08:28;97900.38;;;7.12;94.79
13765;BME280;6953;48.810;9.204;2024-03-25T03:10:54;97936.16;;;7.25;95.07
13765;BME280;6953;48.810;9.204;2024-03-25T03:13:19;98027.19;;;7.63;95.68
13765;BME280;6953;48.810;9.204;2024-03-25T03:15:44;97714.41;;;5.97;95.51
13765;BME280;6953;48.810;9.204;2024-03-25T03:18:10;98016.75;;;7.63;95.71
13765;BME280;6953;48.810;9.204;2024-03-25T03:20:36;97809.84;;;6.49;95.40
13765;BME280;6953;48.810;9.204;2024-03-25T03:23:01;97907.09;;;7.16;95.77
13765;BME280;6953;48.810;9.204;2024-03-25T03:25:26;97981.91;;;7.64;95.28
13765;BME280;6953;48.810;9.204;2024-03-25T03:27:51;97988.06;;;7.63;95.37
13765;BME280;6953;48.810;9.204;2024-03-25T03:30:17;97756.44;;;6.23;95.17
13765;BME280;6953;48.810;9.204;2024-03-25T03:32:42;98013.25;;;7.47;96.20
13765;BME280;6953;48.810;9.204;2024-03-25T03:35:07;97980.03;;;7.34;96.08
13765;BME280;6953;48.810;9.204;2024-03-25T03:37:33;97680.91;;;5.39;96.68
13765;BME280;6953;48.810;9.204;2024-03-25T03:39:58;97978.69;;;6.93;97.87
13765;BME280;6953;48.810;9.204;2024-03-25T03:42:23;97987.25;;;6.78;98.55
13765;BME280;6953;48.810;9.204;2024-03-25T03:44:48;98013.72;;;6.71;98.88
13765;BME280;6953;48.810;9.204;2024-03-25T03:47:14;97981.81;;;6.66;99.09
13765;BME280;6953;48.810;9.204;2024-03-25T03:49:39;97979.19;;;6.66;98.89
13765;BME280;6953;48.810;9.204;2024-03-25T03:52:04;97979.75;;;6.72;99.34
13765;BME280;6953;48.810;9.204;2024-03-25T03:54:30;97950.97;;;6.57;99.05
13765;BME280;6953;48.810;9.204;2024-03-25T03:56:55;97615.91;;;4.68;99.27
13765;BME280;6953;48.810;9.204;2024-03-25T03:59:20;97982.66;;;6.83;99.27
13765;BME280;6953;48.810;9.204;2024-03-25T04:01:46;97981.00;;;6.82;99.51
13765;BME280;6953;48.810;9.204;2024-03-25T04:04:11;98018.84;;;6.72;100.00
13765;BME280;6953;48.810;9.204;2024-03-25T04:06:36;97986.88;;;6.69;99.96
13765;BME280;6953;48.810;9.204;2024-03-25T04:09:01;97998.91;;;6.53;100.00
13765;BME280;6953;48.810;9.204;2024-03-25T04:11:27;97967.66;;;6.53;100.00
13765;BME280;6953;48.810;9.204;2024-03-25T04:13:52;97927.00;;;6.32;100.00
13765;BME280;6953;48.810;9.204;2024-03-25T04:16:18;97911.75;;;6.24;100.00
13765;BME280;6953;48.810;9.204;2024-03-25T04:18:43;98002.91;;;6.78;100.00
13765;BME280;6953;48.810;9.204;2024-03-25T04:21:12;97911.38;;;6.32;100.00
13765;BME280;6953;48.810;9.204;2024-03-25T04:23:37;97981.50;;;6.72;100.00
13765;BME280;6953;48.810;9.204;2024-03-25T04:26:03;97780.97;;;5.49;100.00
13765;BME280;6953;48.810;9.204;2024-03-25T04:28:31;97996.44;;;6.85;100.00
13765;BME280;6953;48.810;9.204;2024-03-25T04:30:56;97995.38;;;6.89;100.00
13765;BME280;6953;48.810;9.204;2024-03-25T04:33:21;98017.88;;;6.92;100.00
13765;BME280;6953;48.810;9.204;2024-03-25T04:35:47;97939.09;;;6.68;99.44
13765;BME280;6953;48.810;9.204;2024-03-25T04:38:12;97988.72;;;7.01;98.86
13765;BME280;6953;48.810;9.204;2024-03-25T04:40:38;97775.25;;;5.78;98.38
13765;BME280;6953;48.810;9.204;2024-03-25T04:43:04;98010.25;;;7.04;98.53
13765;BME280;6953;48.810;9.204;2024-03-25T04:45:30;97794.56;;;5.91;98.68
13765;BME280;6953;48.810;9.204;2024-03-25T04:47:55;97982.59;;;7.02;98.50
13765;BME280;6953;48.810;9.204;2024-03-25T04:50:20;97991.28;;;7.02;98.06
13765;BME280;6953;48.810;9.204;2024-03-25T04:52:45;97949.75;;;6.81;98.00
13765;BME280;6953;48.810;9.204;2024-03-25T04:55:11;97978.44;;;6.98;98.54
13765;BME280;6953;48.810;9.204;2024-03-25T04:57:36;97917.63;;;6.63;97.76
13765;BME280;6953;48.810;9.204;2024-03-25T05:00:02;97972.41;;;6.97;97.65
13765;BME280;6953;48.810;9.204;2024-03-25T05:02:27;97942.38;;;6.55;97.58
13765;BME280;6953;48.810;9.204;2024-03-25T05:04:53;97988.47;;;7.05;97.76
13765;BME280;6953;48.810;9.204;2024-03-25T05:07:18;97996.41;;;7.04;97.53
13765;BME280;6953;48.810;9.204;2024-03-25T05:09:43;97843.97;;;6.09;97.59
13765;BME280;6953;48.810;9.204;2024-03-25T05:12:10;97883.06;;;6.26;98.22
13765;BME280;6953;48.810;9.204;2024-03-25T05:14:35;97975.03;;;6.62;98.96
13765;BME280;6953;48.810;9.204;2024-03-25T05:17:00;97738.50;;;5.13;98.88
13765;BME280;6953;48.810;9.204;2024-03-25T05:19:28;98002.03;;;6.61;99.83
13765;BME280;6953;48.810;9.204;2024-03-25T05:21:53;98005.69;;;6.57;99.31
13765;BME280;6953;48.810;9.204;2024-03-25T05:24:19;97936.06;;;6.07;99.62
13765;BME280;6953;48.810;9.204;2024-03-25T05:26:44;98030.38;;;6.31;100.00
13765;BME280;6953;48.810;9.204;2024-03-25T05:29:09;97993.22;;;6.28;100.00
13765;BME280;6953;48.810;9.204;2024-03-25T05:31:35;97991.53;;;6.09;100.00
13765;BME280;6953;48.810;9.204;2024-03-25T05:34:00;97853.72;;;5.50;100.00
13765;BME280;6953;48.810;9.204;2024-03-25T05:36:27;98016.06;;;6.40;100.00
13765;BME280;6953;48.810;9.204;2024-03-25T05:38:53;97998.19;;;6.32;100.00
13765;BME280;6953;48.810;9.204;2024-03-25T05:41:18;98021.53;;;6.52;100.00
13765;BME280;6953;48.810;9.204;2024-03-25T05:43:43;98018.81;;;6.55;100.00
13765;BME280;6953;48.810;9.204;2024-03-25T05:46:09;98012.81;;;6.53;100.00
13765;BME280;6953;48.810;9.204;2024-03-25T05:48:34;98038.59;;;6.59;100.00
13765;BME280;6953;48.810;9.204;2024-03-25T05:51:04;97745.00;;;5.03;99.72
13765;BME280;6953;48.810;9.204;2024-03-25T05:53:32;98026.03;;;6.67;100.00
13765;BME280;6953;48.810;9.204;2024-03-25T05:56:03;98026.56;;;6.74;100.00
13765;BME280;6953;48.810;9.204;2024-03-25T05:58:28;97928.25;;;6.25;99.52
13765;BME280;6953;48.810;9.204;2024-03-25T06:00:54;97919.97;;;6.34;98.75
13765;BME280;6953;48.810;9.204;2024-03-25T06:03:20;98025.16;;;7.02;98.90
13765;BME280;6953;48.810;9.204;2024-03-25T06:05:46;98026.88;;;7.03;98.62
13765;BME280;6953;48.810;9.204;2024-03-25T06:08:11;98033.81;;;7.03;99.25
13765;BME280;6953;48.810;9.204;2024-03-25T06:10:50;98014.56;;;7.05;99.43
13765;BME280;6953;48.810;9.204;2024-03-25T06:13:15;98018.72;;;7.09;99.13
13765;BME280;6953;48.810;9.204;2024-03-25T06:15:40;98020.63;;;7.22;98.58
13765;BME280;6953;48.810;9.204;2024-03-25T06:18:05;98023.22;;;7.39;98.69
13765;BME280;6953;48.810;9.204;2024-03-25T06:20:31;98024.06;;;7.57;98.00
13765;BME280;6953;48.810;9.204;2024-03-25T06:22:56;98023.38;;;7.70;97.22
13765;BME280;6953;48.810;9.204;2024-03-25T06:25:22;98021.03;;;7.81;97.37
13765;BME280;6953;48.810;9.204;2024-03-25T06:27:47;97769.13;;;6.46;95.52
13765;BME280;6953;48.810;9.204;2024-03-25T06:30:12;97987.44;;;7.91;95.03
13765;BME280;6953;48.810;9.204;2024-03-25T06:32:57;98051.81;;;8.24;93.52
13765;BME280;6953;48.810;9.204;2024-03-25T06:35:44;98017.19;;;8.51;92.32
13765;BME280;6953;48.810;9.204;2024-03-25T06:38:10;98019.53;;;8.71;91.45
13765;BME280;6953;48.810;9.204;2024-03-25T06:40:35;97901.88;;;8.11;91.04
13765;BME280;6953;48.810;9.204;2024-03-25T06:43:01;97844.34;;;7.82;89.60
13765;BME280;6953;48.810;9.204;2024-03-25T06:45:26;98033.00;;;8.95;88.76
13765;BME280;6953;48.810;9.204;2024-03-25T06:47:52;97790.88;;;7.58;88.38
13765;BME280;6953;48.810;9.204;2024-03-25T06:50:17;98013.09;;;8.92;88.04
13765;BME280;6953;48.810;9.204;2024-03-25T06:52:42;97853.16;;;7.95;88.10
13765;BME280;6953;48.810;9.204;2024-03-25T06:55:08;98025.28;;;9.07;87.48
13765;BME280;6953;48.810;9.204;2024-03-25T06:57:33;97963.50;;;8.75;88.20
13765;BME280;6953;48.810;9.204;2024-03-25T06:59:58;98034.28;;;9.32;87.46
13765;BME280;6953;48.810;9.204;2024-03-25T07:02:24;98026.94;;;10.50;83.78
13765;BME280;6953;48.810;9.204;2024-03-25T07:04:49;97803.66;;;11.56;71.52
13765;BME280;6953;48.810;9.204;2024-03-25T07:07:15;97989.75;;;13.86;64.77
13765;BME280;6953;48.810;9.204;2024-03-25T07:09:40;98060.50;;;13.92;65.34
13765;BME280;6953;48.810;9.204;2024-03-25T07:12:06;98026.59;;;14.86;60.25
13765;BME280;6953;48.810;9.204;2024-03-25T07:14:31;98043.97;;;16.35;53.23
13765;BME280;6953;48.810;9.204;2024-03-25T07:16:57;97860.81;;;15.90;48.09
13765;BME280;6953;48.810;9.204;2024-03-25T07:19:22;98028.09;;;17.89;45.58
13765;BME280;6953;48.810;9.204;2024-03-25T07:21:47;97987.41;;;18.07;43.35
13765;BME280;6953;48.810;9.204;2024-03-25T07:24:13;97821.28;;;15.89;46.82
13765;BME280;6953;48.810;9.204;2024-03-25T07:26:38;98044.03;;;17.61;44.14
13765;BME280;6953;48.810;9.204;2024-03-25T07:29:03;98028.16;;;18.71;41.51
13765;BME280;6953;48.810;9.204;2024-03-25T07:31:28;98046.63;;;19.96;37.00
13765;BME280;6953;48.810;9.204;2024-03-25T07:33:54;98046.63;;;20.64;34.57
13765;BME280;6953;48.810;9.204;2024-03-25T07:36:19;98066.84;;;21.57;33.08
13765;BME280;6953;48.810;9.204;2024-03-25T07:38:44;98056.91;;;22.15;31.46
13765;BME280;6953;48.810;9.204;2024-03-25T07:41:09;98048.91;;;22.07;31.60
13765;BME280;6953;48.810;9.204;2024-03-25T07:43:35;97864.25;;;20.33;31.63
13765;BME280;6953;48.810;9.204;2024-03-25T07:46:00;98049.41;;;21.21;32.24
13765;BME280;6953;48.810;9.204;2024-03-25T07:48:25;98042.94;;;20.57;32.65
13765;BME280;6953;48.810;9.204;2024-03-25T07:50:51;98039.09;;;19.91;33.90
13765;BME280;6953;48.810;9.204;2024-03-25T07:53:16;98035.16;;;19.95;34.33
13765;BME280;6953;48.810;9.204;2024-03-25T07:55:41;97846.53;;;18.63;34.70
13765;BME280;6953;48.810;9.204;2024-03-25T07:58:06;97858.66;;;19.35;32.05
13765;BME280;6953;48.810;9.204;2024-03-25T08:00:32;98062.75;;;19.60;31.67
13765;BME280;6953;48.810;9.204;2024-03-25T08:02:57;97961.41;;;18.01;34.43
13765;BME280;6953;48.810;9.204;2024-03-25T08:05:22;98062.13;;;17.27;36.26
13765;BME280;6953;48.810;9.204;2024-03-25T08:07:47;98034.13;;;18.46;35.45
13765;BME280;6953;48.810;9.204;2024-03-25T08:10:13;98067.03;;;18.26;35.36
13765;BME280;6953;48.810;9.204;2024-03-25T08:12:38;98021.19;;;18.15;35.40
13765;BME280;6953;48.810;9.204;2024-03-25T08:15:04;97967.00;;;19.85;31.66
13765;BME280;6953;48.810;9.204;2024-03-25T08:17:29;97980.13;;;21.69;28.98
13765;BME280;6953;48.810;9.204;2024-03-25T08:19:55;97902.09;;;22.60;26.61
13765;BME280;6953;48.810;9.204;2024-03-25T08:22:20;98058.19;;;24.63;25.49
13765;BME280;6953;48.810;9.204;2024-03-25T08:24:45;98077.34;;;25.82;22.79
13765;BME280;6953;48.810;9.204;2024-03-25T08:27:11;98081.84;;;26.38;23.05
13765;BME280;6953;48.810;9.204;2024-03-25T08:29:36;97892.81;;;25.75;21.92
13765;BME280;6953;48.810;9.204;2024-03-25T08:32:02;98089.63;;;27.36;20.88
13765;BME280;6953;48.810;9.204;2024-03-25T08:34:27;98091.53;;;27.95;20.93
13765;BME280;6953;48.810;9.204;2024-03-25T08:36:52;97994.44;;;28.41;19.94
13765;BME280;6953;48.810;9.204;2024-03-25T08:39:17;98035.59;;;29.32;18.92
13765;BME280;6953;48.810;9.204;2024-03-25T08:41:43;98114.53;;;29.72;18.52
13765;BME280;6953;48.810;9.204;2024-03-25T08:44:09;98093.69;;;29.79;17.80
13765;BME280;6953;48.810;9.204;2024-03-25T08:46:34;98094.81;;;29.66;17.21
13765;BME280;6953;48.810;9.204;2024-03-25T08:49:00;98055.31;;;29.52;17.21
13765;BME280;6953;48.810;9.204;2024-03-25T08:51:25;98118.97;;;29.54;17.30
13765;BME280;6953;48.810;9.204;2024-03-25T08:53:51;98082.41;;;29.89;17.25
13765;BME280;6953;48.810;9.204;2024-03-25T08:56:16;98077.34;;;30.05;17.74
13765;BME280;6953;48.810;9.204;2024-03-25T08:58:41;98067.06;;;30.93;17.04
13765;BME280;6953;48.810;9.204;2024-03-25T09:01:07;98088.06;;;32.23;15.67
13765;BME280;6953;48.810;9.204;2024-03-25T09:03:34;98079.56;;;33.06;14.69
13765;BME280;6953;48.810;9.204;2024-03-25T09:06:00;98076.06;;;33.17;14.74
13765;BME280;6953;48.810;9.204;2024-03-25T09:08:29;97890.59;;;32.70;14.93
13765;BME280;6953;48.810;9.204;2024-03-25T09:11:01;98093.50;;;34.34;13.43
13765;BME280;6953;48.810;9.204;2024-03-25T09:13:32;98079.38;;;33.19;15.23
13765;BME280;6953;48.810;9.204;2024-03-25T09:15:58;98036.84;;;32.09;15.24
13765;BME280;6953;48.810;9.204;2024-03-25T09:18:23;98019.56;;;30.18;16.02
13765;BME280;6953;48.810;9.204;2024-03-25T09:20:48;97869.38;;;26.51;18.85
13765;BME280;6953;48.810;9.204;2024-03-25T09:23:14;98010.75;;;26.81;19.41
13765;BME280;6953;48.810;9.204;2024-03-25T09:25:39;98029.84;;;27.73;18.11
13765;BME280;6953;48.810;9.204;2024-03-25T09:28:04;97989.03;;;25.79;20.05
13765;BME280;6953;48.810;9.204;2024-03-25T09:30:31;97983.56;;;22.80;22.13
13765;BME280;6953;48.810;9.204;2024-03-25T09:32:56;97865.59;;;19.79;24.50
13765;BME280;6953;48.810;9.204;2024-03-25T09:35:22;97808.09;;;18.13;25.97
13765;BME280;6953;48.810;9.204;2024-03-25T09:37:47;97963.22;;;18.74;27.55
13765;BME280;6953;48.810;9.204;2024-03-25T09:40:13;97976.41;;;22.02;24.50
13765;BME280;6953;48.810;9.204;2024-03-25T09:42:48;97844.38;;;25.41;19.92
13765;BME280;6953;48.810;9.204;2024-03-25T09:45:17;97889.22;;;27.95;17.91
13765;BME280;6953;48.810;9.204;2024-03-25T09:47:47;98013.28;;;29.93;16.49
13765;BME280;6953;48.810;9.204;2024-03-25T09:50:13;97833.38;;;29.95;15.86
13765;BME280;6953;48.810;9.204;2024-03-25T09:52:41;98021.44;;;31.62;15.38
13765;BME280;6953;48.810;9.204;2024-03-25T09:55:06;98013.84;;;31.82;15.26
13765;BME280;6953;48.810;9.204;2024-03-25T09:57:33;97852.44;;;32.07;14.73
13765;BME280;6953;48.810;9.204;2024-03-25T09:59:59;98028.00;;;34.02;13.23
13765;BME280;6953;48.810;9.204;2024-03-25T10:02:25;97852.00;;;32.96;12.81
13765;BME280;6953;48.810;9.204;2024-03-25T10:04:51;97988.03;;;34.18;13.12
13765;BME280;6953;48.810;9.204;2024-03-25T10:07:22;98020.53;;;34.09;12.78
13765;BME280;6953;48.810;9.204;2024-03-25T10:09:49;97938.41;;;33.16;13.48
13765;BME280;6953;48.810;9.204;2024-03-25T10:12:14;98023.47;;;33.51;13.25
13765;BME280;6953;48.810;9.204;2024-03-25T10:14:40;98018.44;;;33.99;12.65
13765;BME280;6953;48.810;9.204;2024-03-25T10:17:05;97851.78;;;33.69;12.14
13765;BME280;6953;48.810;9.204;2024-03-25T10:19:32;97795.13;;;33.83;11.93
13765;BME280;6953;48.810;9.204;2024-03-25T10:22:05;98013.84;;;34.98;11.51
13765;BME280;6953;48.810;9.204;2024-03-25T10:24:41;98007.97;;;34.08;13.09
13765;BME280;6953;48.810;9.204;2024-03-25T10:27:10;97945.91;;;33.37;13.39
13765;BME280;6953;48.810;9.204;2024-03-25T10:29:37;97967.41;;;33.95;12.96
13765;BME280;6953;48.810;9.204;2024-03-25T10:32:02;97957.06;;;35.33;12.60
13765;BME280;6953;48.810;9.204;2024-03-25T10:34:29;97809.94;;;34.24;12.17
13765;BME280;6953;48.810;9.204;2024-03-25T10:36:56;97977.13;;;35.65;12.38
13765;BME280;6953;48.810;9.204;2024-03-25T10:39:26;97955.31;;;34.02;13.02
13765;BME280;6953;48.810;9.204;2024-03-25T10:41:56;97956.34;;;34.13;12.60
13765;BME280;6953;48.810;9.204;2024-03-25T10:44:25;97960.91;;;32.89;13.04
13765;BME280;6953;48.810;9.204;2024-03-25T10:46:57;97933.00;;;33.33;12.67
13765;BME280;6953;48.810;9.204;2024-03-25T10:49:33;97980.09;;;35.21;11.50
13765;BME280;6953;48.810;9.204;2024-03-25T10:52:03;97889.41;;;36.19;11.35
13765;BME280;6953;48.810;9.204;2024-03-25T10:54:31;97967.06;;;37.37;10.35
13765;BME280;6953;48.810;9.204;2024-03-25T10:56:58;97969.47;;;36.87;10.57
13765;BME280;6953;48.810;9.204;2024-03-25T10:59:24;97973.41;;;33.02;13.31
13765;BME280;6953;48.810;9.204;2024-03-25T11:01:51;97970.31;;;29.72;15.10
13765;BME280;6953;48.810;9.204;2024-03-25T11:04:16;97941.78;;;30.56;14.06
13765;BME280;6953;48.810;9.204;2024-03-25T11:06:42;97931.94;;;32.37;13.47
13765;BME280;6953;48.810;9.204;2024-03-25T11:09:07;97942.91;;;34.77;12.04
13765;BME280;6953;48.810;9.204;2024-03-25T11:11:33;97708.59;;;34.49;11.78
13765;BME280;6953;48.810;9.204;2024-03-25T11:13:59;97933.56;;;35.80;10.96
13765;BME280;6953;48.810;9.204;2024-03-25T11:16:30;97934.50;;;33.96;12.58
13765;BME280;6953;48.810;9.204;2024-03-25T11:19:03;97928.06;;;35.06;12.92
13765;BME280;6953;48.810;9.204;2024-03-25T11:21:28;97848.13;;;35.84;11.32
13765;BME280;6953;48.810;9.204;2024-03-25T11:23:54;97742.19;;;36.33;10.40
13765;BME280;6953;48.810;9.204;2024-03-25T11:26:25;97924.47;;;35.48;11.35
13765;BME280;6953;48.810;9.204;2024-03-25T11:28:55;97726.09;;;31.13;13.27
13765;BME280;6953;48.810;9.204;2024-03-25T11:31:25;97862.41;;;33.26;13.10
13765;BME280;6953;48.810;9.204;2024-03-25T11:33:50;97838.22;;;35.21;11.50
13765;BME280;6953;48.810;9.204;2024-03-25T11:36:16;97893.09;;;36.76;11.57
13765;BME280;6953;48.810;9.204;2024-03-25T11:38:44;97861.13;;;35.72;12.09
13765;BME280;6953;48.810;9.204;2024-03-25T11:41:13;97889.78;;;32.69;13.73
13765;BME280;6953;48.810;9.204;2024-03-25T11:43:41;97789.00;;;32.48;13.22
13765;BME280;6953;48.810;9.204;2024-03-25T11:46:07;97864.91;;;31.33;13.98
13765;BME280;6953;48.810;9.204;2024-03-25T11:48:32;97710.03;;;28.22;15.88
13765;BME280;6953;48.810;9.204;2024-03-25T11:50:58;97847.75;;;26.85;17.76
13765;BME280;6953;48.810;9.204;2024-03-25T11:53:24;97651.16;;;24.43;18.80
13765;BME280;6953;48.810;9.204;2024-03-25T11:55:50;97535.78;;;23.74;20.04
13765;BME280;6953;48.810;9.204;2024-03-25T11:58:16;97789.22;;;27.06;18.01
13765;BME280;6953;48.810;9.204;2024-03-25T12:00:45;97803.09;;;27.94;16.57
13765;BME280;6953;48.810;9.204;2024-03-25T12:03:14;97569.94;;;24.76;18.62
13765;BME280;6953;48.810;9.204;2024-03-25T12:05:40;97784.75;;;25.10;19.55
13765;BME280;6953;48.810;9.204;2024-03-25T12:08:08;97774.78;;;23.69;20.84
13765;BME280;6953;48.810;9.204;2024-03-25T12:10:36;97758.44;;;24.99;19.89
13765;BME280;6953;48.810;9.204;2024-03-25T12:13:20;97665.34;;;28.39;16.60
13765;BME280;6953;48.810;9.204;2024-03-25T12:15:45;97765.06;;;31.53;14.99
13765;BME280;6953;48.810;9.204;2024-03-25T12:18:11;97767.31;;;33.64;12.94
13765;BME280;6953;48.810;9.204;2024-03-25T12:20:36;97789.56;;;34.91;11.85
13765;BME280;6953;48.810;9.204;2024-03-25T12:23:04;97790.13;;;35.72;11.57
13765;BME280;6953;48.810;9.204;2024-03-25T12:25:29;97616.34;;;35.56;10.48
13765;BME280;6953;48.810;9.204;2024-03-25T12:27:54;97616.53;;;35.09;10.68
13765;BME280;6953;48.810;9.204;2024-03-25T12:30:20;97659.81;;;34.47;12.07
13765;BME280;6953;48.810;9.204;2024-03-25T12:32:45;97748.09;;;34.46;12.03
13765;BME280;6953;48.810;9.204;2024-03-25T12:35:12;97790.88;;;35.10;12.21
13765;BME280;6953;48.810;9.204;2024-03-25T12:37:39;97585.19;;;34.53;11.64
13765;BME280;6953;48.810;9.204;2024-03-25T12:40:07;97762.59;;;33.60;12.26
13765;BME280;6953;48.810;9.204;2024-03-25T12:42:34;97748.84;;;31.12;14.03
13765;BME280;6953;48.810;9.204;2024-03-25T12:45:00;97741.72;;;29.63;15.45
13765;BME280;6953;48.810;9.204;2024-03-25T12:47:26;97640.66;;;30.81;13.80
13765;BME280;6953;48.810;9.204;2024-03-25T12:49:51;97708.09;;;31.30;13.78
13765;BME280;6953;48.810;9.204;2024-03-25T12:52:17;97712.00;;;30.93;14.56
13765;BME280;6953;48.810;9.204;2024-03-25T12:54:43;97709.63;;;31.84;13.37
13765;BME280;6953;48.810;9.204;2024-03-25T12:57:11;97671.34;;;32.75;13.29
13765;BME280;6953;48.810;9.204;2024-03-25T12:59:37;97548.56;;;31.90;12.93
13765;BME280;6953;48.810;9.204;2024-03-25T13:02:02;97476.22;;;31.16;13.02
13765;BME280;6953;48.810;9.204;2024-03-25T13:04:28;97701.97;;;31.81;13.54
13765;BME280;6953;48.810;9.204;2024-03-25T13:06:53;97697.34;;;31.12;14.12
13765;BME280;6953;48.810;9.204;2024-03-25T13:09:19;97691.88;;;32.04;13.45